Time;durP1;ratioP1;P1;durP2;ratioP2;P2;SDS_P1;SDS_P2;PMS_P1;PMS_P2;Temp;Humidity;BMP_temperature;BMP_pressure;BME280_temperature;BME280_humidity;BME280_pressure;Samples;Min_cycle;Max_cycle;Signal;HPM_P1;HPM_P2
2023/08/22 00:01:38;;;;;;;25.75;21.70;;;;;;;31.03;nan;97502.19;4860888;29;20053;-67
2023/08/22 00:04:07;;;;;;;28.60;21.20;;;;;;;31.03;nan;97499.47;4863556;29;20068;-67
2023/08/22 00:06:37;;;;;;;25.55;21.42;;;;;;;31.01;nan;97503.72;4861043;29;20053;-67
2023/08/22 00:09:08;;;;;;;28.65;21.52;;;;;;;30.94;nan;97504.28;4862597;29;20081;-67
2023/08/22 00:11:37;;;;;;;26.25;20.33;;;;;;;30.93;nan;97508.19;4858754;29;20049;-67
2023/08/22 00:14:07;;;;;;;31.40;21.70;;;;;;;30.88;nan;97511.19;4870951;29;20141;-67
2023/08/22 00:16:36;;;;;;;31.30;20.88;;;;;;;30.95;nan;97505.09;4859867;29;20049;-67
2023/08/22 00:19:05;;;;;;;25.63;20.88;;;;;;;30.95;nan;97507.81;4859189;29;20450;-67
2023/08/22 00:21:35;;;;;;;27.42;19.85;;;;;;;30.91;nan;97504.22;4860446;29;20554;-67
2023/08/22 00:24:04;;;;;;;26.52;20.98;;;;;;;30.90;nan;97508.09;4860891;29;20517;-67
2023/08/22 00:26:33;;;;;;;27.52;22.33;;;;;;;30.89;nan;97501.06;4864645;29;20834;-66
2023/08/22 00:29:03;;;;;;;28.48;19.83;;;;;;;30.92;nan;97505.81;4860828;29;20370;-66
2023/08/22 00:31:32;;;;;;;27.73;20.38;;;;;;;30.95;nan;97508.63;4860580;29;20060;-66
2023/08/22 00:34:02;;;;;;;28.30;21.50;;;;;;;30.94;nan;97515.22;4863090;29;20615;-66
2023/08/22 00:36:31;;;;;;;28.15;21.38;;;;;;;30.99;nan;97509.50;4860303;29;20064;-66
2023/08/22 00:39:01;;;;;;;26.33;20.05;;;;;;;30.96;nan;97515.69;4861569;29;20161;-66
2023/08/22 00:41:30;;;;;;;27.75;20.52;;;;;;;30.92;nan;97517.53;4842899;29;20720;-66
2023/08/22 00:44:00;;;;;;;27.73;20.45;;;;;;;30.91;nan;97518.69;4846233;29;20137;-66
2023/08/22 00:46:30;;;;;;;25.40;20.10;;;;;;;30.94;nan;97514.44;4850325;29;20061;-66
2023/08/22 00:49:00;;;;;;;25.35;20.85;;;;;;;30.94;nan;97508.97;4844863;29;20118;-66
2023/08/22 00:51:30;;;;;;;28.73;21.10;;;;;;;30.94;nan;97504.28;4840956;29;20114;-66
2023/08/22 00:53:59;;;;;;;26.60;20.05;;;;;;;30.98;nan;97504.41;4845107;29;20580;-66
2023/08/22 00:56:30;;;;;;;27.70;19.05;;;;;;;30.99;nan;97505.97;4838909;29;20057;-66
2023/08/22 00:59:00;;;;;;;25.45;19.00;;;;;;;31.00;nan;97505.66;4865220;29;20159;-66
2023/08/22 01:01:31;;;;;;;23.48;19.08;;;;;;;31.04;nan;97512.00;4863622;29;20344;-70
2023/08/22 01:04:00;;;;;;;23.42;18.83;;;;;;;31.05;nan;97510.06;4849661;29;20764;-70
2023/08/22 01:06:51;;;;;;;26.45;19.23;;;;;;;31.08;nan;97510.13;4835420;29;20058;-70
2023/08/22 01:09:27;;;;;;;25.30;19.63;;;;;;;31.10;nan;97510.59;4833972;29;20054;-71
2023/08/22 01:12:27;;;;;;;25.02;19.00;;;;;;;31.10;nan;97510.59;4834172;29;20084;-70
2023/08/22 01:15:08;;;;;;;28.00;19.67;;;;;;;31.07;nan;97510.50;4831843;29;20058;-70
2023/08/22 01:17:39;;;;;;;28.40;18.75;;;;;;;31.07;nan;97515.97;4833139;29;20050;-70
2023/08/22 01:20:13;;;;;;;30.65;18.75;;;;;;;31.10;nan;97512.53;4828233;29;20060;-71
2023/08/22 01:22:42;;;;;;;26.83;19.88;;;;;;;31.15;nan;97524.00;4833142;29;20061;-70
2023/08/22 01:25:12;;;;;;;24.90;18.17;;;;;;;31.16;nan;97522.81;4832522;29;20049;-70
2023/08/22 01:27:59;;;;;;;25.23;19.08;;;;;;;31.19;nan;97524.88;4833832;29;20054;-70
2023/08/22 01:30:50;;;;;;;25.63;17.38;;;;;;;31.23;nan;97527.69;4843081;29;20058;-71
2023/08/22 01:33:29;;;;;;;27.85;18.00;;;;;;;31.27;nan;97528.56;4832979;29;20060;-71
2023/08/22 01:35:58;;;;;;;21.55;17.52;;;;;;;31.32;nan;97533.75;4847660;29;20061;-71
2023/08/22 01:38:29;;;;;;;22.35;18.90;;;;;;;31.32;nan;97527.50;4860575;29;20140;-71
2023/08/22 01:40:59;;;;;;;25.20;17.63;;;;;;;31.40;nan;97523.75;4832399;29;20387;-71
2023/08/22 01:43:28;;;;;;;24.30;18.55;;;;;;;31.50;nan;97526.75;4831942;29;20140;-71
2023/08/22 01:45:58;;;;;;;21.15;17.13;;;;;;;31.63;nan;97528.22;4839421;29;20105;-70
2023/08/22 01:48:27;;;;;;;28.55;17.15;;;;;;;31.75;nan;97524.56;4849897;29;20065;-70
2023/08/22 01:50:56;;;;;;;21.77;15.98;;;;;;;31.78;nan;97526.56;4851287;29;20152;-70
2023/08/22 01:53:25;;;;;;;20.73;16.20;;;;;;;31.88;nan;97527.94;4852288;29;20602;-71
2023/08/22 01:55:59;;;;;;;22.40;17.08;;;;;;;32.00;nan;97530.53;4852087;29;20128;-70
2023/08/22 01:58:29;;;;;;;23.65;16.88;;;;;;;32.02;nan;97526.28;4833552;29;20080;-68
2023/08/22 02:00:59;;;;;;;25.75;16.40;;;;;;;32.16;nan;97527.75;4833044;29;20049;-68
2023/08/22 02:03:28;;;;;;;22.95;15.90;;;;;;;32.23;nan;97525.13;4834529;29;20057;-69
2023/08/22 02:05:57;;;;;;;21.98;17.73;;;;;;;32.32;nan;97528.44;4851641;29;20073;-69
2023/08/22 02:08:27;;;;;;;23.33;16.88;;;;;;;32.42;nan;97527.88;4835899;29;20142;-68
2023/08/22 02:10:57;;;;;;;24.83;16.50;;;;;;;32.54;nan;97530.41;4851146;29;20152;-69
2023/08/22 02:13:26;;;;;;;23.17;17.40;;;;;;;32.63;nan;97530.22;4850069;29;20073;-69
2023/08/22 02:15:56;;;;;;;20.08;15.50;;;;;;;32.65;nan;97534.19;4836296;29;20058;-68
2023/08/22 02:18:25;;;;;;;24.30;16.58;;;;;;;32.70;nan;97522.94;4852400;29;20053;-70
2023/08/22 02:20:57;;;;;;;21.90;16.02;;;;;;;32.85;nan;97535.69;4825277;29;20053;-70
2023/08/22 02:23:26;;;;;;;25.73;15.85;;;;;;;33.04;nan;97529.34;4851721;29;20057;-68
2023/08/22 02:25:56;;;;;;;21.20;15.93;;;;;;;33.29;nan;97527.00;4851325;29;20050;-68
2023/08/22 02:28:25;;;;;;;23.48;14.85;;;;;;;33.59;nan;97541.56;4851529;29;20156;-69
2023/08/22 02:30:57;;;;;;;24.92;15.52;;;;;;;33.76;nan;97538.31;4851020;29;20224;-69
2023/08/22 02:33:29;;;;;;;18.77;15.02;;;;;;;33.89;nan;97540.81;4863265;29;20064;-69
2023/08/22 02:36:00;;;;;;;23.65;15.48;;;;;;;34.03;nan;97530.78;4836843;29;20065;-69
2023/08/22 02:38:31;;;;;;;19.88;15.98;;;;;;;34.24;nan;97536.56;4833490;29;20057;-69
2023/08/22 02:41:01;;;;;;;20.17;14.60;;;;;;;34.29;nan;97532.69;4851897;29;20152;-69
2023/08/22 02:43:30;;;;;;;19.27;15.23;;;;;;;34.35;nan;97527.63;4835288;29;20049;-69
2023/08/22 02:46:00;;;;;;;22.38;14.20;;;;;;;34.28;nan;97534.63;4835757;29;20062;-69
2023/08/22 02:48:30;;;;;;;18.48;14.40;;;;;;;34.05;nan;97530.41;4863885;29;20084;-69
2023/08/22 02:50:59;;;;;;;20.23;14.48;;;;;;;34.03;nan;97535.50;4851114;29;20069;-69
2023/08/22 02:53:31;;;;;;;31.10;14.90;;;;;;;34.17;nan;97530.16;4832720;29;20049;-69
2023/08/22 02:56:01;;;;;;;21.60;14.73;;;;;;;34.08;nan;97527.69;4865653;29;20772;-69
2023/08/22 02:58:31;;;;;;;21.10;13.98;;;;;;;34.01;nan;97535.06;4833913;29;20862;-69
2023/08/22 03:01:01;;;;;;;28.35;14.35;;;;;;;33.92;nan;97534.56;4862141;29;20050;-69
2023/08/22 03:03:33;;;;;;;21.25;12.57;;;;;;;33.97;nan;97535.03;4830524;29;20068;-69
2023/08/22 03:06:03;;;;;;;18.33;12.35;;;;;;;34.00;nan;97537.03;4835104;29;20124;-69
2023/08/22 03:08:32;;;;;;;20.02;12.40;;;;;;;34.06;nan;97535.53;4833836;29;20160;-69
2023/08/22 03:11:02;;;;;;;17.58;12.20;;;;;;;34.19;nan;97533.34;4869670;29;20133;-68
2023/08/22 03:13:32;;;;;;;20.02;11.70;;;;;;;34.19;nan;97536.09;4838460;29;20698;-69
2023/08/22 03:16:02;;;;;;;14.77;11.50;;;;;;;34.20;nan;97534.94;4837963;29;20395;-68
2023/08/22 03:18:34;;;;;;;21.10;12.57;;;;;;;34.28;nan;97528.34;4838697;29;20053;-68
2023/08/22 03:21:04;;;;;;;18.85;12.52;;;;;;;34.30;nan;97533.47;4839434;29;20063;-69
2023/08/22 03:23:33;;;;;;;23.70;14.15;;;;;;;34.40;nan;97536.31;4845632;29;20225;-69
2023/08/22 03:26:03;;;;;;;23.77;14.38;;;;;;;34.42;nan;97536.75;4852799;29;20634;-70
2023/08/22 03:28:34;;;;;;;19.83;13.50;;;;;;;34.44;nan;97537.16;4838486;29;20053;-70
2023/08/22 03:31:04;;;;;;;21.77;14.55;;;;;;;34.49;nan;97536.03;4837475;29;20085;-67
2023/08/22 03:33:34;;;;;;;19.73;13.68;;;;;;;34.53;nan;97539.59;4857870;29;20060;-69
2023/08/22 03:36:07;;;;;;;24.60;14.73;;;;;;;34.52;nan;97538.03;4838111;29;20050;-70
2023/08/22 03:38:37;;;;;;;19.27;14.25;;;;;;;34.50;nan;97541.16;4838865;29;20054;-70
2023/08/22 03:41:06;;;;;;;19.20;13.95;;;;;;;34.53;nan;97534.88;4837620;29;20390;-70
2023/08/22 03:43:36;;;;;;;21.77;13.40;;;;;;;34.61;nan;97538.53;4869953;29;20060;-70
2023/08/22 03:46:06;;;;;;;22.33;14.05;;;;;;;34.72;nan;97539.44;4857455;29;20509;-70
2023/08/22 03:48:36;;;;;;;40.70;15.82;;;;;;;34.76;nan;97531.19;4824650;29;20328;-70
2023/08/22 03:51:06;;;;;;;17.48;14.27;;;;;;;34.65;nan;97531.84;4854501;29;20144;-70
2023/08/22 03:53:40;;;;;;;19.05;14.65;;;;;;;34.66;nan;97533.47;4837736;29;20060;-70
2023/08/22 03:56:10;;;;;;;22.08;15.45;;;;;;;34.70;nan;97539.78;4853047;29;20060;-69
2023/08/22 03:58:39;;;;;;;129.48;25.10;;;;;;;34.85;nan;97545.44;4838487;29;20136;-69
2023/08/22 04:01:08;;;;;;;31.55;14.32;;;;;;;34.94;nan;97543.16;4838137;29;20071;-70
2023/08/22 04:03:37;;;;;;;18.17;12.52;;;;;;;34.95;nan;97545.53;4863187;29;20582;-70
2023/08/22 04:06:07;;;;;;;20.13;13.65;;;;;;;35.04;nan;97548.75;4837728;29;20088;-70
2023/08/22 04:08:38;;;;;;;18.50;12.30;;;;;;;35.09;nan;97548.41;4854028;29;20566;-70
2023/08/22 04:11:07;;;;;;;18.33;12.13;;;;;;;35.09;nan;97553.91;4853355;29;20064;-70
2023/08/22 04:13:37;;;;;;;18.05;10.98;;;;;;;35.12;nan;97544.88;4838428;29;20049;-71
2023/08/22 04:16:07;;;;;;;18.00;11.10;;;;;;;35.20;nan;97544.94;4851395;29;20057;-70
2023/08/22 04:18:36;;;;;;;16.60;10.82;;;;;;;35.32;nan;97550.94;4850623;29;20057;-70
2023/08/22 04:21:05;;;;;;;15.70;10.02;;;;;;;35.41;nan;97545.09;4868031;29;20383;-70
2023/08/22 04:23:35;;;;;;;18.70;11.57;;;;;;;35.41;nan;97548.63;4838361;29;20469;-70
2023/08/22 04:26:05;;;;;;;19.40;10.75;;;;;;;35.47;nan;97549.88;4837641;29;20068;-71
2023/08/22 04:28:36;;;;;;;19.50;10.25;;;;;;;35.54;nan;97549.91;4854476;29;20136;-70
2023/08/22 04:31:06;;;;;;;18.30;10.77;;;;;;;35.64;nan;97547.59;4851795;29;20305;-70
2023/08/22 04:33:35;;;;;;;15.95;10.95;;;;;;;35.78;nan;97554.00;4838310;29;20045;-70
2023/08/22 04:36:06;;;;;;;21.83;11.63;;;;;;;35.79;nan;97552.84;4853943;29;20245;-71
2023/08/22 04:38:35;;;;;;;21.77;10.25;;;;;;;35.94;nan;97557.22;4845763;29;20113;-70
2023/08/22 04:41:06;;;;;;;17.92;11.20;;;;;;;36.02;nan;97558.06;4835904;29;20084;-68
2023/08/22 04:43:54;;;;;;;16.63;10.23;;;;;;;36.21;nan;97559.72;4854367;29;20045;-65
2023/08/22 04:46:23;;;;;;;20.08;10.75;;;;;;;36.25;nan;97555.03;4837401;29;20067;-68
2023/08/22 04:48:53;;;;;;;20.88;10.63;;;;;;;36.44;nan;97562.94;4837949;29;20069;-71
2023/08/22 04:51:22;;;;;;;15.75;9.70;;;;;;;36.70;nan;97565.41;4851658;29;20086;-70
2023/08/22 04:53:53;;;;;;;17.08;9.93;;;;;;;36.96;nan;97560.72;4839015;29;20391;-72
2023/08/22 04:56:23;;;;;;;14.50;9.07;;;;;;;37.21;nan;97576.13;4844966;29;20049;-71
2023/08/22 04:58:52;;;;;;;20.17;9.18;;;;;;;37.24;nan;97569.00;4844173;29;20590;-71
2023/08/22 05:01:22;;;;;;;21.42;9.18;;;;;;;37.35;nan;97578.84;4837907;29;20475;-70
2023/08/22 05:03:52;;;;;;;15.95;9.48;;;;;;;37.30;nan;97576.50;4842285;29;20053;-71
2023/08/22 05:06:21;;;;;;;21.42;9.52;;;;;;;37.68;nan;97576.88;4846258;29;20052;-71
2023/08/22 05:08:50;;;;;;;16.13;8.10;;;;;;;37.41;nan;97579.25;4862709;29;20131;-70
2023/08/22 05:11:20;;;;;;;18.13;8.30;;;;;;;37.39;nan;97584.41;4843181;29;20054;-71
2023/08/22 05:13:50;;;;;;;15.68;8.63;;;;;;;37.62;nan;97575.72;4851290;29;20053;-71
2023/08/22 05:16:19;;;;;;;19.25;9.52;;;;;;;37.77;nan;97582.78;4836992;29;20078;-71
2023/08/22 05:18:49;;;;;;;22.58;9.55;;;;;;;37.78;nan;97576.84;4838051;29;20508;-71
2023/08/22 05:21:18;;;;;;;22.90;9.65;;;;;;;37.85;nan;97578.78;4821303;29;20057;-71
2023/08/22 05:23:47;;;;;;;29.17;11.35;;;;;;;38.11;nan;97575.56;4849827;29;20097;-71
2023/08/22 05:26:17;;;;;;;22.15;9.40;;;;;;;38.08;nan;97581.91;4836424;29;20110;-71
2023/08/22 05:28:47;;;;;;;21.58;9.57;;;;;;;38.00;nan;97574.84;4852547;29;20077;-69
2023/08/22 05:31:23;;;;;;;22.90;7.90;;;;;;;38.35;nan;97579.41;4851246;29;20140;-69
2023/08/22 05:33:54;;;;;;;20.67;9.05;;;;;;;38.43;nan;97582.97;4835301;29;20049;-70
2023/08/22 05:36:24;;;;;;;18.90;8.10;;;;;;;38.08;nan;97570.06;4835450;29;20050;-71
2023/08/22 05:38:54;;;;;;;16.70;7.63;;;;;;;38.69;nan;97571.34;4835545;29;20049;-70
2023/08/22 05:41:23;;;;;;;17.13;7.22;;;;;;;38.51;nan;97565.13;4848093;29;20053;-71
2023/08/22 05:43:53;;;;;;;19.45;7.55;;;;;;;38.38;nan;97581.38;4823612;29;20589;-71
2023/08/22 05:46:23;;;;;;;20.65;7.72;;;;;;;38.20;nan;97566.84;4828847;29;20446;-71
2023/08/22 05:48:52;;;;;;;22.02;8.68;;;;;;;38.53;nan;97566.31;4861398;29;20186;-71
2023/08/22 05:51:23;;;;;;;16.40;7.60;;;;;;;38.59;nan;97567.44;4831042;29;20124;-71
2023/08/22 05:53:53;;;;;;;19.65;8.70;;;;;;;38.10;nan;97564.91;4831179;29;20136;-71
2023/08/22 05:56:22;;;;;;;18.02;7.25;;;;;;;37.82;nan;97557.47;4827279;29;20045;-71
2023/08/22 05:58:52;;;;;;;16.95;8.48;;;;;;;37.80;nan;97564.63;4848292;29;20148;-71
2023/08/22 06:01:21;;;;;;;16.77;9.05;;;;;;;38.14;nan;97558.19;4831226;29;20054;-70
2023/08/22 06:03:53;;;;;;;20.83;7.90;;;;;;;38.27;nan;97554.97;4842272;29;20049;-70
2023/08/22 06:06:22;;;;;;;15.60;6.85;;;;;;;38.41;nan;97554.88;4858396;29;20396;-70
2023/08/22 06:08:52;;;;;;;18.23;7.35;;;;;;;38.34;nan;97552.13;4819500;29;20049;-70
2023/08/22 06:11:21;;;;;;;17.08;7.95;;;;;;;38.17;nan;97553.81;4853640;29;20064;-70
2023/08/22 06:13:53;;;;;;;22.25;8.38;;;;;;;38.21;nan;97544.31;4859106;29;20049;-70
2023/08/22 06:16:22;;;;;;;14.65;7.35;;;;;;;38.32;nan;97537.94;4832165;29;20068;-71
2023/08/22 06:18:52;;;;;;;12.85;6.93;;;;;;;38.37;nan;97538.31;4851598;29;20064;-70
2023/08/22 06:21:21;;;;;;;10.27;6.50;;;;;;;38.35;nan;97539.88;4833073;29;20680;-70
2023/08/22 06:23:50;;;;;;;14.13;6.45;;;;;;;38.42;nan;97542.59;4818515;29;20063;-71
2023/08/22 06:26:20;;;;;;;21.30;8.02;;;;;;;38.52;nan;97539.81;4831145;29;20078;-72
2023/08/22 06:28:51;;;;;;;18.15;7.35;;;;;;;38.43;nan;97541.44;4832356;29;20046;-71
2023/08/22 06:31:22;;;;;;;13.52;6.53;;;;;;;38.25;nan;97530.44;4828279;29;20136;-72
2023/08/22 06:33:52;;;;;;;23.27;7.70;;;;;;;38.28;nan;97529.66;4832450;29;20049;-70
2023/08/22 06:36:22;;;;;;;20.25;7.75;;;;;;;38.40;nan;97520.09;4847882;29;20153;-72
2023/08/22 06:38:53;;;;;;;17.23;6.80;;;;;;;38.49;nan;97524.03;4833020;29;20045;-72
2023/08/22 06:41:23;;;;;;;;;;;;;;;38.62;nan;97519.59;4830163;29;20053;-72
2023/08/22 06:43:53;;;;;;;13.52;6.70;;;;;;;38.45;nan;97522.47;4831297;29;19931;-72
2023/08/22 06:46:23;;;;;;;19.13;6.70;;;;;;;38.29;nan;97513.81;4850612;29;20214;-72
2023/08/22 06:48:52;;;;;;;17.00;7.22;;;;;;;38.22;nan;97521.00;4836110;29;20093;-71
2023/08/22 06:51:21;;;;;;;15.10;7.43;;;;;;;37.96;nan;97510.44;4850374;29;20053;-71
2023/08/22 06:53:51;;;;;;;14.20;6.43;;;;;;;38.08;nan;97509.22;4848975;29;20041;-74
2023/08/22 06:56:21;;;;;;;14.75;6.97;;;;;;;38.27;nan;97505.94;4850387;29;20063;-72
2023/08/22 06:58:50;;;;;;;13.38;8.25;;;;;;;38.22;nan;97498.88;4865509;29;20053;-72
2023/08/22 07:01:20;;;;;;;16.92;7.32;;;;;;;38.28;nan;97498.44;4850721;29;20060;-73
2023/08/22 07:03:49;;;;;;;18.25;6.72;;;;;;;38.30;nan;97488.53;4848696;29;20067;-70
2023/08/22 07:06:29;;;;;;;14.82;6.43;;;;;;;38.32;nan;97491.69;4850133;29;20049;-74
2023/08/22 07:08:58;;;;;;;20.92;7.15;;;;;;;38.37;nan;97496.00;4835577;29;20551;-70
2023/08/22 07:11:28;;;;;;;11.07;6.57;;;;;;;38.19;nan;97488.63;4833462;29;20073;-73
2023/08/22 07:13:57;;;;;;;14.65;7.97;;;;;;;38.36;nan;97481.41;4846586;29;20065;-70
2023/08/22 07:16:27;;;;;;;23.35;8.75;;;;;;;38.46;nan;97482.53;4848398;29;20073;-70
2023/08/22 07:18:56;;;;;;;18.77;8.07;;;;;;;38.62;nan;97478.06;4850323;29;20061;-72
2023/08/22 07:21:26;;;;;;;12.23;7.00;;;;;;;38.50;nan;97475.00;4834136;29;20062;-75
2023/08/22 07:23:56;;;;;;;18.73;7.35;;;;;;;38.40;nan;97465.56;4834622;29;20092;-73
2023/08/22 07:26:26;;;;;;;19.48;6.70;;;;;;;38.32;nan;97463.25;4852054;29;20057;-72
2023/08/22 07:28:55;;;;;;;16.67;7.03;;;;;;;38.36;nan;97462.03;4835274;29;20081;-71
2023/08/22 07:31:24;;;;;;;12.48;6.28;;;;;;;38.37;nan;97460.84;4849030;29;20057;-69
2023/08/22 07:33:54;;;;;;;14.63;5.57;;;;;;;38.20;nan;97456.97;4851238;29;20651;-71
2023/08/22 07:36:24;;;;;;;19.55;6.57;;;;;;;38.22;nan;97442.75;4848939;29;20057;-71
2023/08/22 07:38:54;;;;;;;16.67;6.57;;;;;;;38.18;nan;97445.53;4845918;29;20054;-73
2023/08/22 07:41:24;;;;;;;13.18;6.22;;;;;;;38.25;nan;97449.44;4850814;29;20346;-74
2023/08/22 07:43:54;;;;;;;14.10;6.25;;;;;;;38.30;nan;97451.78;4850660;29;20083;-74
2023/08/22 07:46:24;;;;;;;12.38;5.88;;;;;;;38.45;nan;97453.28;4846054;29;20061;-74
2023/08/22 07:48:53;;;;;;;8.60;5.60;;;;;;;38.39;nan;97446.56;4850132;29;20558;-73
2023/08/22 07:51:22;;;;;;;14.63;6.00;;;;;;;38.28;nan;97441.13;4832357;29;20105;-71
2023/08/22 07:53:53;;;;;;;13.05;6.63;;;;;;;38.26;nan;97434.41;4848242;29;20053;-74
2023/08/22 07:56:23;;;;;;;10.93;6.50;;;;;;;38.20;nan;97434.84;4863786;29;20071;-70
2023/08/22 07:58:52;;;;;;;13.05;5.97;;;;;;;38.15;nan;97426.22;4862090;29;20220;-71
2023/08/22 08:01:22;;;;;;;12.18;6.32;;;;;;;37.74;nan;97421.28;4848940;29;20053;-70
2023/08/22 08:03:51;;;;;;;14.43;6.60;;;;;;;37.58;nan;97428.44;4846446;29;20061;-71
2023/08/22 08:06:21;;;;;;;16.33;6.32;;;;;;;37.79;nan;97422.84;4846283;29;20060;-73
2023/08/22 08:08:50;;;;;;;10.55;6.30;;;;;;;37.77;nan;97422.44;4832093;29;20050;-69
2023/08/22 08:11:20;;;;;;;14.93;6.60;;;;;;;37.92;nan;97414.84;4849366;29;20379;-70
2023/08/22 08:13:49;;;;;;;13.98;6.30;;;;;;;38.02;nan;97422.34;4845458;29;21586;-70
2023/08/22 08:16:18;;;;;;;16.63;6.45;;;;;;;37.95;nan;97422.34;4834390;29;20054;-72
2023/08/22 08:19:06;;;;;;;22.15;6.68;;;;;;;37.88;nan;97422.38;4846737;29;20053;-73
2023/08/22 08:21:35;;;;;;;12.15;5.80;;;;;;;37.97;nan;97417.22;4818708;29;20056;-70
2023/08/22 08:24:05;;;;;;;15.65;6.47;;;;;;;38.02;nan;97416.81;4835436;29;20153;-71
2023/08/22 08:26:35;;;;;;;12.48;5.18;;;;;;;38.02;nan;97412.03;4857041;29;20049;-70
2023/08/22 08:29:04;;;;;;;13.63;5.65;;;;;;;38.02;nan;97406.50;4857163;29;20902;-73
2023/08/22 08:31:33;;;;;;;14.48;5.20;;;;;;;37.98;nan;97404.97;4843690;29;20049;-70
2023/08/22 08:34:02;;;;;;;15.32;4.95;;;;;;;37.96;nan;97402.59;4856689;29;20136;-72
2023/08/22 08:36:32;;;;;;;16.35;4.97;;;;;;;37.80;nan;97393.22;4850078;29;20060;-72
2023/08/22 08:39:02;;;;;;;16.73;6.38;;;;;;;37.87;nan;97393.16;4858412;29;20053;-72
2023/08/22 08:41:34;;;;;;;13.48;6.28;;;;;;;37.84;nan;97391.22;4856135;29;20129;-73
2023/08/22 08:44:04;;;;;;;14.68;5.68;;;;;;;37.91;nan;97394.72;4842242;29;20068;-73
2023/08/22 08:46:34;;;;;;;12.95;7.18;;;;;;;37.63;nan;97394.88;4853488;29;20470;-72
2023/08/22 08:49:05;;;;;;;15.10;6.88;;;;;;;37.45;nan;97391.34;4849117;29;20052;-73
2023/08/22 08:51:38;;;;;;;16.65;7.40;;;;;;;37.59;nan;97394.88;4850480;29;20056;-72
2023/08/22 08:54:07;;;;;;;19.92;7.50;;;;;;;37.65;nan;97392.50;4850490;29;20486;-72
2023/08/22 08:56:37;;;;;;;19.25;8.32;;;;;;;37.66;nan;97374.72;4835169;29;20051;-71
2023/08/22 08:59:06;;;;;;;16.42;7.53;;;;;;;37.66;nan;97369.19;4851968;29;20057;-72
2023/08/22 09:01:37;;;;;;;15.65;7.18;;;;;;;37.64;nan;97366.03;4855465;29;20487;-72
2023/08/22 09:04:06;;;;;;;18.90;7.47;;;;;;;37.68;nan;97358.50;4846861;29;20105;-72
2023/08/22 09:06:37;;;;;;;13.93;6.80;;;;;;;37.67;nan;97362.47;4846109;29;20049;-72
2023/08/22 09:09:08;;;;;;;16.42;6.80;;;;;;;37.68;nan;97362.06;4844112;29;20062;-72
2023/08/22 09:11:47;;;;;;;12.95;7.90;;;;;;;37.65;nan;97351.03;4836807;29;20053;-71
2023/08/22 09:14:20;;;;;;;15.00;6.75;;;;;;;37.67;nan;97348.66;4855414;29;20064;-71
2023/08/22 09:16:50;;;;;;;15.95;6.82;;;;;;;37.64;nan;97341.97;4856285;29;20056;-71
2023/08/22 09:19:22;;;;;;;17.15;6.35;;;;;;;37.67;nan;97345.88;4859117;29;20172;-71
2023/08/22 09:21:58;;;;;;;16.30;7.75;;;;;;;37.60;nan;97340.41;4858442;29;20049;-71
2023/08/22 09:24:27;;;;;;;18.13;7.35;;;;;;;37.64;nan;97333.66;4840540;29;20064;-70
2023/08/22 09:26:58;;;;;;;18.73;7.93;;;;;;;37.67;nan;97329.28;4849671;29;20485;-70
2023/08/22 09:29:29;;;;;;;32.00;8.50;;;;;;;37.69;nan;97327.72;4850916;29;20108;-70
2023/08/22 09:32:01;;;;;;;44.70;11.25;;;;;;;37.65;nan;97332.47;4849705;29;20053;-70
2023/08/22 09:34:31;;;;;;;21.95;8.75;;;;;;;37.57;nan;97330.97;4847627;29;20678;-70
2023/08/22 09:37:02;;;;;;;14.85;7.60;;;;;;;37.50;nan;97321.88;4852019;29;20767;-70
2023/08/22 09:39:33;;;;;;;13.95;7.18;;;;;;;37.48;nan;97325.06;4851432;29;20113;-70
2023/08/22 09:42:04;;;;;;;16.02;7.00;;;;;;;37.46;nan;97326.63;4842324;29;20056;-71
2023/08/22 09:44:35;;;;;;;17.50;8.27;;;;;;;37.59;nan;97320.28;4845812;29;20060;-70
2023/08/22 09:47:06;;;;;;;15.35;7.63;;;;;;;37.54;nan;97322.66;4846461;29;20060;-70
2023/08/22 09:49:36;;;;;;;21.55;7.35;;;;;;;37.47;nan;97322.69;4843379;29;20171;-70
2023/08/22 09:52:07;;;;;;;18.52;8.10;;;;;;;37.48;nan;97315.97;4858449;29;20061;-70
2023/08/22 09:54:36;;;;;;;17.75;7.40;;;;;;;37.49;nan;97314.78;4844137;29;20064;-70
2023/08/22 09:57:05;;;;;;;21.08;7.43;;;;;;;37.57;nan;97313.59;4846396;29;20081;-70
2023/08/22 09:59:35;;;;;;;18.38;7.53;;;;;;;37.55;nan;97318.72;4848029;29;20103;-71
2023/08/22 10:02:05;;;;;;;17.45;8.73;;;;;;;37.43;nan;97313.63;4848394;29;20045;-70
2023/08/22 10:04:36;;;;;;;16.90;8.23;;;;;;;37.41;nan;97311.25;4847758;29;20054;-68
2023/08/22 10:07:14;;;;;;;19.24;7.03;;;;;;;37.36;nan;97317.19;4776172;29;10000355;-68
2023/08/22 10:09:44;;;;;;;14.10;6.97;;;;;;;37.36;nan;97319.97;4846222;29;20590;-68
2023/08/22 10:12:17;;;;;;;15.13;7.07;;;;;;;37.32;nan;97308.94;4845865;29;20205;-69
2023/08/22 10:14:56;;;;;;;18.02;7.88;;;;;;;37.34;nan;97311.31;4861368;29;20053;-69
2023/08/22 10:17:29;;;;;;;14.15;6.57;;;;;;;37.33;nan;97306.97;4847113;29;20053;-68
2023/08/22 10:20:05;;;;;;;15.05;6.60;;;;;;;37.28;nan;97299.09;4847509;29;20060;-68
2023/08/22 10:22:34;;;;;;;14.90;6.05;;;;;;;37.13;nan;97303.13;4844181;29;20128;-69
2023/08/22 10:25:05;;;;;;;16.30;6.53;;;;;;;37.07;nan;97305.50;4848614;29;20087;-69
2023/08/22 10:27:41;;;;;;;19.60;6.53;;;;;;;37.14;nan;97293.63;4846805;29;20486;-68
2023/08/22 10:30:15;;;;;;;14.75;6.07;;;;;;;37.19;nan;97296.78;4849903;29;20065;-68
2023/08/22 10:33:03;;;;;;;12.50;5.60;;;;;;;37.20;nan;97287.31;4833093;29;20561;-68
2023/08/22 10:35:41;;;;;;;10.48;5.10;;;;;;;37.22;nan;97286.91;4846930;29;20582;-68
2023/08/22 10:38:20;;;;;;;16.13;5.80;;;;;;;37.18;nan;97291.63;4847922;29;20101;-68
2023/08/22 10:40:54;;;;;;;15.82;5.07;;;;;;;37.17;nan;97282.59;4848775;29;20045;-68
2023/08/22 10:43:38;;;;;;;16.75;6.25;;;;;;;37.20;nan;97272.72;4847389;29;20053;-70
2023/08/22 10:46:08;;;;;;;15.88;5.80;;;;;;;37.21;nan;97269.56;4841472;29;20097;-71
2023/08/22 10:48:38;;;;;;;11.10;5.00;;;;;;;37.16;nan;97266.41;4849924;29;20049;-71
2023/08/22 10:51:08;;;;;;;12.55;4.93;;;;;;;37.11;nan;97264.06;4848266;29;20056;-72
2023/08/22 10:53:44;;;;;;;16.20;4.40;;;;;;;37.13;nan;97262.50;4848708;29;20061;-69
2023/08/22 10:56:26;;;;;;;12.55;4.47;;;;;;;37.16;nan;97264.44;4846833;29;20068;-70
2023/08/22 10:59:03;;;;;;;11.18;4.80;;;;;;;37.11;nan;97259.34;4848630;29;20053;-70
2023/08/22 11:01:33;;;;;;;14.88;5.53;;;;;;;37.06;nan;97259.75;4845871;29;20126;-69
2023/08/22 11:04:04;;;;;;;16.48;5.00;;;;;;;37.03;nan;97251.47;4841886;29;20054;-69
2023/08/22 11:06:37;;;;;;;14.07;5.27;;;;;;;36.98;nan;97249.91;4847150;29;20054;-70
2023/08/22 11:09:12;;;;;;;14.70;5.47;;;;;;;36.96;nan;97246.75;4848118;29;20064;-70
2023/08/22 11:11:42;;;;;;;15.30;5.65;;;;;;;36.94;nan;97240.06;4860158;29;20157;-69
2023/08/22 11:14:11;;;;;;;17.88;5.05;;;;;;;37.00;nan;97244.00;4848054;29;20069;-70
2023/08/22 11:16:40;;;;;;;11.40;4.18;;;;;;;37.00;nan;97236.47;4846813;29;20054;-70
2023/08/22 11:19:10;;;;;;;20.00;5.10;;;;;;;37.00;nan;97225.44;4847809;29;20430;-70
2023/08/22 11:21:39;;;;;;;12.70;4.88;;;;;;;37.00;nan;97232.94;4847399;29;20062;-70
2023/08/22 11:24:10;;;;;;;10.27;4.90;;;;;;;36.98;nan;97230.59;4847963;29;20138;-70
2023/08/22 11:26:40;;;;;;;11.00;5.10;;;;;;;36.95;nan;97223.13;4860731;29;20050;-70
2023/08/22 11:29:09;;;;;;;13.90;5.78;;;;;;;36.94;nan;97221.53;4851405;29;20089;-69
2023/08/22 11:31:39;;;;;;;14.40;5.20;;;;;;;36.89;nan;97217.22;4851318;29;20054;-69
2023/08/22 11:34:09;;;;;;;42.40;7.65;;;;;;;36.93;nan;97219.94;4851196;29;20046;-69
2023/08/22 11:36:39;;;;;;;18.77;6.53;;;;;;;36.90;nan;97210.50;4851185;29;20056;-71
2023/08/22 11:39:09;;;;;;;9.68;5.20;;;;;;;36.88;nan;97206.56;4850590;29;20081;-70
2023/08/22 11:41:40;;;;;;;11.63;5.63;;;;;;;36.87;nan;97207.75;4850573;29;20880;-70
2023/08/22 11:44:13;;;;;;;12.38;4.90;;;;;;;36.83;nan;97213.28;4849782;29;20072;-69
2023/08/22 11:46:43;;;;;;;19.85;7.43;;;;;;;36.76;nan;97209.78;4850960;29;20057;-70
2023/08/22 11:49:50;;;;;;;14.15;5.20;;;;;;;36.75;nan;97205.44;4841499;29;20246;-70
2023/08/22 11:52:20;;;;;;;16.45;5.25;;;;;;;36.70;nan;97201.13;4850294;29;20481;-70
2023/08/22 11:54:49;;;;;;;11.85;4.50;;;;;;;36.73;nan;97205.06;4852110;29;20128;-70
2023/08/22 11:57:20;;;;;;;17.08;5.18;;;;;;;36.72;nan;97209.81;4855447;29;20045;-70